Time;durP1;ratioP1;P1;durP2;ratioP2;P2;SDS_P1;SDS_P2;PMS_P1;PMS_P2;Temp;Humidity;BMP_temperature;BMP_pressure;BME280_temperature;BME280_humidity;BME280_pressure;Samples;Min_cycle;Max_cycle;Signal;HPM_P1;HPM_P2
2022/12/30 00:01:07;;;;;;;39.80;28.55;;;10.80;99.90;;;;;;5067292;28;20053;-76
2022/12/30 00:03:35;;;;;;;41.80;28.75;;;10.90;99.90;;;;;;5067692;28;20051;-76
2022/12/30 00:06:05;;;;;;;40.10;28.33;;;10.90;99.90;;;;;;5082794;28;20078;-76
2022/12/30 00:08:48;;;;;;;36.50;27.50;;;10.90;99.90;;;;;;5074760;28;20040;-75
2022/12/30 00:11:25;;;;;;;34.55;23.75;;;10.90;99.90;;;;;;5091107;28;20036;-76
2022/12/30 00:34:34;;;;;;;27.80;18.77;;;10.90;99.90;;;;;;5092300;28;20051;-76
2022/12/30 00:37:02;;;;;;;25.55;17.38;;;10.80;99.90;;;;;;5078603;28;20044;-76
2022/12/30 00:39:30;;;;;;;24.08;16.83;;;10.80;99.90;;;;;;5081976;28;20070;-76
2022/12/30 00:44:44;;;;;;;22.42;15.35;;;10.80;99.90;;;;;;5088434;28;20063;-76
2022/12/30 00:47:12;;;;;;;24.13;16.88;;;10.90;99.90;;;;;;5079655;28;20127;-75
2022/12/30 00:57:57;;;;;;;22.30;15.73;;;10.90;99.90;;;;;;5090672;28;20066;-76
2022/12/30 01:00:25;;;;;;;24.00;15.60;;;11.00;99.90;;;;;;5080057;28;20052;-75
2022/12/30 01:02:53;;;;;;;25.17;16.15;;;11.00;99.90;;;;;;5077877;28;20051;-75
2022/12/30 01:05:20;;;;;;;23.80;16.65;;;11.00;99.90;;;;;;5078652;28;20385;-76
2022/12/30 01:07:48;;;;;;;22.92;16.17;;;11.00;99.90;;;;;;5083402;28;20038;-76
2022/12/30 01:10:16;;;;;;;23.98;16.75;;;11.00;99.90;;;;;;5081806;28;20116;-76
2022/12/30 01:12:43;;;;;;;25.23;16.42;;;11.00;99.90;;;;;;5078608;28;20101;-76
2022/12/30 01:15:11;;;;;;;22.05;16.05;;;11.00;99.90;;;;;;5081588;28;20048;-76
2022/12/30 01:17:39;;;;;;;25.40;18.15;;;10.90;99.90;;;;;;5079590;28;20048;-76
2022/12/30 01:20:07;;;;;;;28.65;16.73;;;11.00;99.90;;;;;;5077054;28;20055;-76
2022/12/30 01:22:35;;;;;;;24.00;17.35;;;10.90;99.90;;;;;;5090691;28;20498;-76
2022/12/30 01:25:03;;;;;;;24.30;16.13;;;11.00;99.90;;;;;;5090465;28;20469;-76
2022/12/30 01:27:32;;;;;;;26.67;17.20;;;11.00;99.90;;;;;;5073083;28;20059;-76
2022/12/30 01:29:59;;;;;;;24.00;18.10;;;11.00;99.90;;;;;;5083150;28;20143;-76
2022/12/30 01:32:29;;;;;;;23.73;16.98;;;11.00;99.90;;;;;;5089776;28;20066;-76
2022/12/30 01:34:57;;;;;;;25.60;15.95;;;11.00;99.90;;;;;;5081857;28;20044;-75
2022/12/30 01:37:25;;;;;;;26.90;18.17;;;11.00;99.90;;;;;;5075899;28;20102;-75
2022/12/30 01:39:53;;;;;;;25.80;18.25;;;11.00;99.90;;;;;;5080051;28;20058;-75
2022/12/30 01:42:24;;;;;;;28.77;17.58;;;11.00;99.90;;;;;;5080476;28;20048;-75
2022/12/30 01:45:01;;;;;;;23.40;17.25;;;10.90;99.90;;;;;;5079125;28;20037;-75
2022/12/30 01:47:39;;;;;;;27.95;18.65;;;10.90;99.90;;;;;;5083761;28;20052;-75
2022/12/30 01:50:21;;;;;;;27.70;17.63;;;10.90;99.90;;;;;;5077374;28;20060;-75
2022/12/30 01:53:07;;;;;;;23.02;16.65;;;10.90;99.90;;;;;;5053355;28;20072;-76
2022/12/30 01:55:44;;;;;;;26.88;18.83;;;10.80;99.90;;;;;;5061751;28;20056;-75
2022/12/30 01:58:17;;;;;;;25.15;17.80;;;10.80;99.90;;;;;;5082322;28;20052;-76
2022/12/30 02:00:46;;;;;;;21.35;15.65;;;10.80;99.90;;;;;;5082910;28;20044;-76
2022/12/30 02:03:13;;;;;;;29.13;20.08;;;10.80;99.90;;;;;;5069061;28;20045;-76
2022/12/30 02:05:44;;;;;;;25.52;18.70;;;10.80;99.90;;;;;;5079663;28;20048;-76
2022/12/30 02:08:14;;;;;;;25.05;18.92;;;10.80;99.90;;;;;;5077595;28;20062;-76
2022/12/30 02:10:45;;;;;;;28.52;20.15;;;10.90;99.90;;;;;;5055756;28;20093;-76
2022/12/30 02:13:14;;;;;;;26.45;18.95;;;10.90;99.90;;;;;;5072050;28;20080;-76
2022/12/30 02:15:44;;;;;;;29.45;17.10;;;10.90;99.90;;;;;;5084781;28;20089;-76
2022/12/30 02:18:25;;;;;;;26.83;16.48;;;10.90;99.90;;;;;;5067084;28;20044;-76
2022/12/30 02:20:55;;;;;;;24.63;17.70;;;10.90;99.90;;;;;;5082501;28;20207;-76
2022/12/30 02:23:48;;;;;;;27.98;18.45;;;10.90;99.90;;;;;;5074234;28;20397;-76
2022/12/30 02:26:48;;;;;;;25.13;16.00;;;10.90;99.90;;;;;;5082140;28;20035;-76
2022/12/30 02:29:54;;;;;;;23.92;15.70;;;10.90;99.90;;;;;;5089561;28;20808;-76
2022/12/30 02:32:46;;;;;;;29.38;19.50;;;10.90;99.90;;;;;;5046472;28;20044;-76
2022/12/30 02:35:26;;;;;;;22.23;16.30;;;10.90;99.90;;;;;;5083532;28;20796;-76
2022/12/30 02:38:21;;;;;;;22.75;16.63;;;10.80;99.90;;;;;;5067450;28;20044;-76
2022/12/30 02:46:49;;;;;;;24.05;16.13;;;10.90;99.90;;;;;;5088984;28;20040;-76
2022/12/30 02:49:17;;;;;;;22.95;16.27;;;10.90;99.90;;;;;;5087738;28;20469;-76
2022/12/30 02:54:32;;;;;;;20.98;15.48;;;10.90;99.90;;;;;;5080105;28;20032;-76
2022/12/30 02:57:00;;;;;;;19.50;14.77;;;11.00;99.90;;;;;;5087537;28;20158;-76
2022/12/30 03:05:31;;;;;;;23.08;15.63;;;10.80;99.90;;;;;;5073383;28;20421;-76
2022/12/30 03:08:15;;;;;;;30.08;16.38;;;10.80;99.90;;;;;;5088908;28;20063;-76
2022/12/30 03:11:16;;;;;;;22.05;15.35;;;10.80;99.90;;;;;;5081013;28;20515;-76
2022/12/30 03:13:48;;;;;;;24.17;16.90;;;10.80;99.90;;;;;;5073190;28;20044;-75
2022/12/30 03:16:41;;;;;;;24.63;15.05;;;10.80;99.90;;;;;;5086158;28;20051;-75
2022/12/30 03:19:32;;;;;;;18.67;13.88;;;10.80;99.90;;;;;;5083687;28;20147;-75
2022/12/30 03:22:00;;;;;;;22.83;14.65;;;10.80;99.90;;;;;;5067620;28;20074;-75
2022/12/30 03:27:22;;;;;;;20.88;14.93;;;10.90;99.90;;;;;;5085336;28;20040;-76
2022/12/30 03:30:03;;;;;;;23.20;15.07;;;11.00;99.90;;;;;;5081409;28;20052;-76
2022/12/30 03:32:32;;;;;;;19.83;12.48;;;11.10;99.90;;;;;;5068678;28;20048;-76
2022/12/30 03:34:59;;;;;;;19.08;13.30;;;11.10;99.90;;;;;;5069401;28;20089;-75
2022/12/30 03:37:32;;;;;;;20.77;13.68;;;11.10;99.90;;;;;;5088534;28;20070;-76
2022/12/30 03:40:26;;;;;;;18.23;13.10;;;11.10;99.90;;;;;;5051938;28;20801;-76
2022/12/30 03:42:55;;;;;;;22.90;14.10;;;11.00;99.90;;;;;;5065420;28;20046;-75
2022/12/30 03:45:22;;;;;;;18.88;13.85;;;11.00;99.90;;;;;;5084326;28;20493;-76
2022/12/30 03:47:50;;;;;;;16.70;12.93;;;11.10;99.90;;;;;;5091227;28;20075;-77
2022/12/30 03:50:18;;;;;;;23.15;13.55;;;11.10;99.90;;;;;;5091331;28;20047;-76
2022/12/30 03:52:45;;;;;;;18.08;11.55;;;11.10;99.90;;;;;;5093400;28;20489;-76
2022/12/30 03:55:13;;;;;;;20.80;13.57;;;11.10;99.90;;;;;;5080917;28;20151;-76
2022/12/30 03:57:40;;;;;;;20.23;13.05;;;11.10;99.90;;;;;;5092513;28;20473;-76
2022/12/30 04:00:08;;;;;;;17.67;10.65;;;11.10;99.90;;;;;;5091307;28;20044;-76
2022/12/30 04:02:39;;;;;;;15.80;11.23;;;11.00;99.90;;;;;;5091562;28;20101;-77
2022/12/30 04:05:07;;;;;;;17.95;12.05;;;10.90;99.90;;;;;;5081672;28;20508;-75
2022/12/30 04:07:35;;;;;;;21.38;14.77;;;10.70;99.90;;;;;;5091042;28;20186;-76
2022/12/30 04:10:04;;;;;;;17.25;11.55;;;10.70;99.90;;;;;;5089741;28;20062;-76
2022/12/30 04:12:32;;;;;;;19.50;12.90;;;10.70;99.90;;;;;;5044963;28;20055;-76
2022/12/30 04:14:59;;;;;;;17.73;12.10;;;10.70;99.90;;;;;;5054342;28;20060;-75
2022/12/30 04:17:27;;;;;;;16.52;12.75;;;10.60;99.90;;;;;;5092881;28;20044;-75
2022/12/30 04:19:54;;;;;;;18.65;11.20;;;10.60;99.90;;;;;;5078006;28;20080;-76
2022/12/30 04:22:22;;;;;;;16.50;11.95;;;10.70;99.90;;;;;;5057886;28;20075;-75
2022/12/30 04:24:50;;;;;;;19.35;12.70;;;10.70;99.90;;;;;;5091239;28;20134;-75
2022/12/30 04:27:19;;;;;;;21.63;12.32;;;10.80;99.90;;;;;;5074208;28;20056;-75
2022/12/30 04:29:47;;;;;;;14.43;10.90;;;10.90;99.90;;;;;;5089921;28;20052;-75
2022/12/30 04:32:14;;;;;;;15.02;10.98;;;10.80;99.90;;;;;;5062517;28;20543;-75
2022/12/30 04:34:42;;;;;;;15.27;11.48;;;10.90;99.90;;;;;;5087817;28;20040;-76
2022/12/30 04:37:09;;;;;;;15.35;10.80;;;10.90;99.90;;;;;;5071662;28;20383;-76
2022/12/30 04:39:37;;;;;;;17.13;11.18;;;10.80;99.90;;;;;;5091956;28;20036;-75
2022/12/30 04:42:04;;;;;;;17.45;9.85;;;10.80;99.90;;;;;;5084943;28;20417;-75
2022/12/30 04:44:32;;;;;;;16.20;11.20;;;10.80;99.90;;;;;;5080557;28;20434;-76
2022/12/30 04:46:59;;;;;;;13.15;10.18;;;10.80;99.90;;;;;;5085442;28;20506;-76
2022/12/30 04:49:27;;;;;;;15.15;10.40;;;10.80;99.90;;;;;;5083431;28;20051;-76
2022/12/30 04:51:54;;;;;;;15.77;9.77;;;10.70;99.90;;;;;;5073677;28;20064;-75
2022/12/30 04:54:21;;;;;;;17.10;10.02;;;10.60;99.90;;;;;;5082007;28;20044;-76
2022/12/30 04:56:49;;;;;;;16.52;10.60;;;10.60;99.90;;;;;;5085960;28;20131;-76
2022/12/30 04:59:17;;;;;;;16.45;9.73;;;10.60;99.90;;;;;;5091017;28;20090;-76
2022/12/30 05:01:44;;;;;;;13.55;9.80;;;10.70;99.90;;;;;;5091600;28;20059;-76
2022/12/30 05:04:15;;;;;;;16.85;10.35;;;10.70;99.90;;;;;;5084068;28;20044;-75
2022/12/30 05:06:43;;;;;;;15.40;8.55;;;10.70;99.90;;;;;;5080735;28;20131;-75
2022/12/30 05:09:10;;;;;;;12.77;8.90;;;10.80;99.90;;;;;;5082342;28;20178;-76
2022/12/30 05:11:38;;;;;;;16.17;10.55;;;10.70;99.90;;;;;;5054744;28;20174;-76
2022/12/30 05:14:05;;;;;;;15.70;10.18;;;10.70;99.90;;;;;;5090554;28;20077;-76
2022/12/30 05:16:33;;;;;;;18.13;10.40;;;10.80;99.90;;;;;;5089912;28;20048;-75
2022/12/30 05:19:00;;;;;;;14.65;9.88;;;10.80;99.90;;;;;;5091018;28;20048;-75
2022/12/30 05:21:28;;;;;;;17.42;11.10;;;10.80;99.90;;;;;;5089995;28;20058;-75
2022/12/30 05:26:41;;;;;;;15.90;11.02;;;10.90;99.90;;;;;;5077524;28;20044;-76
2022/12/30 05:29:09;;;;;;;18.77;10.43;;;10.80;99.90;;;;;;5087154;28;20048;-76
2022/12/30 05:31:36;;;;;;;14.60;10.63;;;10.80;99.90;;;;;;5089653;28;20474;-76
2022/12/30 05:34:04;;;;;;;21.00;12.05;;;10.80;99.90;;;;;;5084185;28;20113;-76
2022/12/30 05:36:35;;;;;;;17.05;10.93;;;10.80;99.90;;;;;;5087107;28;20064;-75
2022/12/30 05:39:02;;;;;;;18.25;10.95;;;10.90;99.90;;;;;;5089711;28;20048;-76
2022/12/30 05:41:30;;;;;;;15.10;9.93;;;10.80;99.90;;;;;;5086115;28;20044;-76
2022/12/30 05:43:58;;;;;;;16.38;9.93;;;10.80;99.90;;;;;;5080941;28;20208;-75
2022/12/30 05:46:25;;;;;;;16.38;9.48;;;10.80;99.90;;;;;;5067558;28;20067;-76
2022/12/30 05:48:52;;;;;;;13.05;8.95;;;10.80;99.90;;;;;;5086571;28;20079;-76
2022/12/30 05:51:20;;;;;;;14.93;9.32;;;10.70;99.90;;;;;;5090110;28;20048;-76
2022/12/30 05:53:48;;;;;;;14.43;9.88;;;10.80;99.90;;;;;;5089912;28;20043;-76
2022/12/30 05:56:15;;;;;;;16.35;9.90;;;10.80;99.90;;;;;;5083453;28;20041;-76
2022/12/30 05:58:43;;;;;;;12.73;8.25;;;10.90;99.90;;;;;;5085087;28;20127;-76
2022/12/30 06:01:10;;;;;;;21.15;11.63;;;10.90;99.90;;;;;;5090305;28;20052;-76
2022/12/30 06:03:38;;;;;;;13.65;9.10;;;10.90;99.90;;;;;;5083371;28;20525;-76
2022/12/30 06:06:08;;;;;;;14.57;9.52;;;10.80;99.90;;;;;;5071757;28;20040;-76
2022/12/30 06:08:36;;;;;;;13.30;9.95;;;10.70;99.90;;;;;;5089073;28;20072;-76
2022/12/30 06:11:04;;;;;;;14.52;9.85;;;10.70;99.90;;;;;;5090615;28;20056;-75
2022/12/30 06:13:32;;;;;;;17.73;10.20;;;10.80;99.90;;;;;;5084059;28;20041;-76
2022/12/30 06:15:59;;;;;;;16.23;9.10;;;10.80;99.90;;;;;;5084592;28;20560;-76
2022/12/30 06:18:27;;;;;;;14.90;9.75;;;10.80;99.90;;;;;;5071956;28;20040;-76
2022/12/30 06:20:55;;;;;;;14.27;9.38;;;10.90;99.90;;;;;;5088694;28;20076;-76
2022/12/30 06:23:23;;;;;;;14.60;8.63;;;10.80;99.90;;;;;;5076872;28;20402;-76
2022/12/30 06:25:56;;;;;;;15.23;9.23;;;10.80;99.90;;;;;;5071743;28;20573;-76
2022/12/30 06:28:25;;;;;;;12.10;7.88;;;10.80;99.90;;;;;;5088301;28;20406;-76
2022/12/30 06:30:53;;;;;;;14.85;9.93;;;10.90;99.90;;;;;;5059993;28;20059;-76
2022/12/30 06:33:23;;;;;;;16.42;9.13;;;11.00;99.90;;;;;;5071288;28;20044;-76
2022/12/30 06:35:50;;;;;;;14.13;8.38;;;11.10;99.90;;;;;;5089656;28;20510;-76
2022/12/30 06:38:19;;;;;;;18.48;9.85;;;11.20;99.90;;;;;;5071646;28;20097;-76
2022/12/30 06:40:46;;;;;;;10.82;8.20;;;11.30;99.90;;;;;;5082370;28;20409;-76
2022/12/30 06:43:14;;;;;;;14.65;8.88;;;11.50;99.90;;;;;;5072099;28;20052;-76
2022/12/30 06:45:42;;;;;;;12.07;7.90;;;11.80;99.90;;;;;;5052011;28;20039;-76
2022/12/30 06:48:10;;;;;;;10.18;7.32;;;12.20;99.90;;;;;;5069276;28;20846;-76
2022/12/30 06:50:38;;;;;;;8.05;6.40;;;12.60;99.90;;;;;;5080097;28;20205;-76
2022/12/30 06:53:06;;;;;;;7.25;5.35;;;13.10;99.90;;;;;;5069423;28;20079;-74
2022/12/30 06:55:34;;;;;;;8.25;5.75;;;13.30;99.90;;;;;;5078221;28;20036;-75
2022/12/30 06:58:03;;;;;;;9.27;6.40;;;13.40;99.90;;;;;;5081108;28;20048;-74
2022/12/30 07:00:31;;;;;;;8.05;5.90;;;13.50;99.90;;;;;;5088913;28;20173;-75
2022/12/30 07:02:59;;;;;;;9.43;6.18;;;13.60;99.90;;;;;;5089301;28;20129;-75
2022/12/30 07:05:26;;;;;;;8.50;5.85;;;13.60;99.90;;;;;;5087687;28;20044;-75
2022/12/30 07:07:54;;;;;;;10.27;5.57;;;13.70;99.90;;;;;;5066425;28;20048;-74
2022/12/30 07:10:21;;;;;;;7.88;4.88;;;14.00;99.90;;;;;;5080426;28;20098;-76
2022/12/30 07:12:49;;;;;;;9.70;5.95;;;14.20;99.90;;;;;;5068176;28;20051;-75
2022/12/30 07:15:17;;;;;;;9.38;5.85;;;14.50;99.90;;;;;;5068530;28;20052;-74
2022/12/30 07:17:44;;;;;;;6.85;4.75;;;14.70;99.90;;;;;;5087307;28;20052;-75
2022/12/30 07:20:12;;;;;;;9.52;4.82;;;15.10;99.90;;;;;;5070004;28;20428;-75
2022/12/30 07:22:40;;;;;;;8.23;5.57;;;15.50;99.90;;;;;;5088186;28;20044;-75
2022/12/30 07:25:08;;;;;;;8.60;4.50;;;15.80;99.90;;;;;;5078780;28;20091;-75
2022/12/30 07:27:36;;;;;;;6.93;4.97;;;16.30;99.90;;;;;;5088863;28;20498;-75
2022/12/30 07:30:04;;;;;;;7.18;5.05;;;16.80;99.90;;;;;;5086908;28;20395;-75
2022/12/30 07:32:32;;;;;;;7.82;5.47;;;16.90;99.90;;;;;;5088725;28;20117;-75
2022/12/30 07:34:59;;;;;;;8.98;4.97;;;17.00;99.90;;;;;;5078883;28;20106;-74
2022/12/30 07:37:27;;;;;;;6.75;4.95;;;17.10;99.90;;;;;;5078164;28;20045;-75
2022/12/30 07:39:55;;;;;;;6.53;4.60;;;16.90;99.90;;;;;;5075667;28;20064;-74
2022/12/30 07:42:22;;;;;;;7.80;4.93;;;16.70;99.90;;;;;;5094112;28;20435;-75
2022/12/30 07:44:50;;;;;;;10.77;5.30;;;16.70;99.90;;;;;;5069753;28;20573;-75
2022/12/30 07:47:17;;;;;;;7.78;4.50;;;16.60;99.90;;;;;;5082959;28;20044;-74
2022/12/30 07:49:45;;;;;;;7.82;5.75;;;16.60;99.90;;;;;;5092942;28;20843;-74
2022/12/30 07:52:12;;;;;;;11.48;5.35;;;16.70;99.90;;;;;;5074170;28;20045;-75
2022/12/30 07:54:40;;;;;;;5.97;4.85;;;16.90;99.90;;;;;;5085263;28;20101;-74
2022/12/30 07:57:07;;;;;;;8.70;4.47;;;16.90;99.90;;;;;;5066243;28;20498;-75
2022/12/30 07:59:35;;;;;;;7.40;4.28;;;16.90;99.90;;;;;;5067189;28;20033;-76
2022/12/30 08:02:03;;;;;;;11.45;4.93;;;17.00;99.90;;;;;;5077583;28;20117;-74
2022/12/30 08:04:30;;;;;;;8.40;4.85;;;17.10;99.90;;;;;;5047787;28;20052;-76
2022/12/30 08:07:19;;;;;;;7.22;4.65;;;16.70;99.90;;;;;;5080925;28;20494;-75
2022/12/30 08:09:46;;;;;;;7.30;4.35;;;16.30;99.90;;;;;;5068375;28;20527;-76
2022/12/30 08:12:14;;;;;;;9.45;5.00;;;16.20;99.90;;;;;;5077477;28;20043;-76
2022/12/30 08:14:42;;;;;;;7.43;4.40;;;16.30;99.90;;;;;;5082320;28;20039;-77
2022/12/30 08:17:11;;;;;;;8.43;4.72;;;16.60;99.90;;;;;;5064571;28;20041;-76
2022/12/30 08:19:40;;;;;;;8.70;4.55;;;17.00;99.90;;;;;;5079922;28;20055;-76
2022/12/30 08:22:09;;;;;;;6.20;4.05;;;17.10;99.90;;;;;;5066701;28;20047;-76
2022/12/30 08:24:36;;;;;;;6.90;4.68;;;17.00;99.90;;;;;;5084120;28;20472;-76
2022/12/30 08:27:04;;;;;;;7.07;4.32;;;16.70;99.90;;;;;;5087675;28;20059;-75
2022/12/30 08:29:32;;;;;;;9.25;4.47;;;16.80;99.90;;;;;;5099174;28;20405;-75
2022/12/30 08:31:59;;;;;;;7.35;3.83;;;17.00;99.90;;;;;;5070219;28;20510;-76
2022/12/30 08:34:27;;;;;;;7.85;5.28;;;17.10;99.90;;;;;;5054203;28;20158;-76
2022/12/30 08:36:55;;;;;;;7.43;4.78;;;17.00;99.90;;;;;;5084007;28;20033;-76
2022/12/30 08:39:22;;;;;;;8.90;4.85;;;16.60;99.90;;;;;;5072586;28;20040;-76
2022/12/30 08:41:50;;;;;;;5.13;3.97;;;16.50;99.90;;;;;;5090162;28;20051;-76
2022/12/30 08:44:23;;;;;;;9.55;5.18;;;16.60;99.90;;;;;;5092029;28;20136;-76
2022/12/30 08:46:51;;;;;;;11.32;4.75;;;16.60;99.90;;;;;;5090335;28;20040;-76
2022/12/30 08:49:19;;;;;;;9.38;4.85;;;16.60;99.90;;;;;;5073675;28;20032;-76
2022/12/30 08:51:47;;;;;;;8.45;4.57;;;16.60;99.90;;;;;;5072356;28;20036;-76
2022/12/30 08:54:16;;;;;;;6.57;4.22;;;16.60;99.90;;;;;;5089187;28;20043;-76
2022/12/30 08:56:45;;;;;;;8.30;5.00;;;16.60;99.90;;;;;;5089987;28;20054;-76
2022/12/30 08:59:13;;;;;;;7.63;4.88;;;16.50;99.90;;;;;;5090306;28;20386;-74
2022/12/30 09:01:42;;;;;;;7.32;4.13;;;16.60;99.90;;;;;;5084204;28;20486;-75
2022/12/30 09:04:11;;;;;;;7.35;4.57;;;16.60;99.90;;;;;;5080952;28;20056;-75
2022/12/30 09:06:41;;;;;;;7.47;4.32;;;16.60;99.90;;;;;;5079777;28;20710;-76
2022/12/30 09:09:11;;;;;;;10.95;4.43;;;16.80;99.90;;;;;;5088211;28;20075;-75
2022/12/30 09:11:40;;;;;;;6.88;5.55;;;16.80;99.90;;;;;;5091476;28;20106;-75
2022/12/30 09:14:09;;;;;;;9.55;4.78;;;16.90;99.90;;;;;;5089181;28;20121;-75
2022/12/30 09:16:37;;;;;;;12.35;4.88;;;16.90;99.90;;;;;;5057027;28;20044;-75
2022/12/30 09:19:05;;;;;;;6.32;4.80;;;16.90;99.90;;;;;;5062743;28;20533;-75
2022/12/30 09:21:33;;;;;;;5.50;4.15;;;17.00;99.90;;;;;;5052261;28;20053;-75
2022/12/30 09:24:01;;;;;;;7.65;4.13;;;16.90;99.90;;;;;;5083829;28;20125;-75
2022/12/30 09:26:29;;;;;;;6.75;4.25;;;16.90;99.90;;;;;;5055309;28;20052;-75
2022/12/30 09:28:58;;;;;;;6.78;4.78;;;17.00;99.90;;;;;;5087979;28;20122;-75
2022/12/30 09:31:27;;;;;;;6.80;3.65;;;17.00;99.90;;;;;;5070940;28;20482;-75
2022/12/30 09:33:55;;;;;;;11.00;5.07;;;17.10;99.90;;;;;;5070464;28;20040;-75
2022/12/30 09:36:22;;;;;;;8.45;3.90;;;17.30;99.90;;;;;;5077519;28;20048;-75
2022/12/30 09:38:50;;;;;;;6.88;4.60;;;17.20;99.90;;;;;;5088626;28;20048;-75
2022/12/30 09:44:52;;;;;;;9.63;4.30;;;17.20;99.90;;;;;;5090204;28;20047;-75
2022/12/30 09:47:25;;;;;;;8.85;3.83;;;17.40;99.90;;;;;;5062272;28;20418;-75
2022/12/30 09:50:13;;;;;;;6.68;3.90;;;17.20;99.90;;;;;;5082952;28;20051;-75
2022/12/30 09:52:52;;;;;;;5.53;4.13;;;17.20;99.90;;;;;;5064822;28;20060;-75
2022/12/30 09:55:30;;;;;;;6.53;4.25;;;17.30;99.90;;;;;;5083638;28;20079;-75
2022/12/30 09:58:03;;;;;;;6.75;3.53;;;17.10;99.90;;;;;;5081964;28;20193;-75
2022/12/30 10:00:34;;;;;;;5.15;3.83;;;16.90;99.90;;;;;;5061588;28;20044;-75
2022/12/30 10:03:17;;;;;;;4.70;3.33;;;16.70;99.90;;;;;;5082469;28;20048;-75
2022/12/30 10:06:25;;;;;;;7.43;4.07;;;16.90;99.90;;;;;;5076727;28;20089;-75
2022/12/30 10:09:30;;;;;;;6.15;3.80;;;17.10;99.90;;;;;;5081917;28;20493;-75
2022/12/30 10:12:20;;;;;;;5.28;3.75;;;17.60;99.90;;;;;;5034923;28;20063;-75
2022/12/30 10:15:04;;;;;;;9.52;3.92;;;17.70;99.90;;;;;;5069368;28;20047;-75
2022/12/30 10:18:14;;;;;;;4.93;3.45;;;17.50;99.90;;;;;;5086877;28;20128;-75
2022/12/30 10:21:14;;;;;;;5.55;3.65;;;17.60;99.90;;;;;;5090118;28;20050;-75
2022/12/30 10:24:05;;;;;;;4.78;3.25;;;17.80;99.90;;;;;;5090147;28;20044;-75
2022/12/30 10:26:49;;;;;;;4.75;3.05;;;17.90;99.90;;;;;;5077937;28;20515;-75
2022/12/30 10:29:32;;;;;;;4.75;3.20;;;17.70;99.90;;;;;;5051284;28;20127;-75
2022/12/30 10:32:26;;;;;;;5.68;3.17;;;17.50;99.90;;;;;;5050802;28;20063;-75
2022/12/30 10:35:05;;;;;;;8.20;3.75;;;17.40;99.90;;;;;;5059130;28;20056;-75
2022/12/30 10:37:35;;;;;;;8.18;4.35;;;17.20;99.90;;;;;;5085781;28;20044;-75
2022/12/30 10:40:12;;;;;;;11.60;6.38;;;17.20;99.90;;;;;;5087853;28;20036;-75
2022/12/30 10:43:14;;;;;;;6.85;3.92;;;17.30;99.90;;;;;;5089777;28;20410;-75
2022/12/30 10:46:19;;;;;;;6.05;4.45;;;17.30;99.90;;;;;;5087917;28;20044;-75
2022/12/30 10:49:04;;;;;;;6.10;4.10;;;17.40;99.90;;;;;;5066686;28;20543;-75
2022/12/30 10:51:31;;;;;;;8.10;4.10;;;17.40;99.90;;;;;;5051425;28;20041;-75
2022/12/30 10:54:01;;;;;;;4.90;3.78;;;17.50;99.90;;;;;;5068442;28;20056;-75
2022/12/30 10:56:31;;;;;;;4.22;3.28;;;17.70;99.90;;;;;;5077038;28;20424;-76
2022/12/30 10:59:04;;;;;;;5.43;4.00;;;17.80;99.90;;;;;;5087787;28;20124;-75
2022/12/30 11:01:35;;;;;;;4.72;3.13;;;17.80;99.90;;;;;;5088909;28;20102;-75
2022/12/30 11:04:03;;;;;;;6.88;3.65;;;17.80;99.90;;;;;;5087553;28;20059;-75
2022/12/30 11:06:32;;;;;;;5.53;3.50;;;17.60;99.90;;;;;;5087940;28;20054;-75
2022/12/30 11:09:12;;;;;;;5.97;3.15;;;17.30;99.90;;;;;;5087799;28;20592;-75
2022/12/30 11:15:03;;;;;;;6.60;4.20;;;16.80;99.90;;;;;;5070929;28;20079;-75
2022/12/30 11:17:44;;;;;;;8.05;4.00;;;16.80;99.90;;;;;;5070913;28;20113;-75
2022/12/30 11:20:24;;;;;;;7.30;3.70;;;16.90;99.90;;;;;;5087487;28;20052;-75
2022/12/30 11:22:54;;;;;;;7.20;4.75;;;16.90;99.90;;;;;;5087375;28;20468;-75
2022/12/30 11:25:29;;;;;;;6.55;3.90;;;17.10;99.90;;;;;;5071376;28;20058;-76
2022/12/30 11:28:04;;;;;;;8.05;4.72;;;17.30;99.90;;;;;;5083989;28;20036;-74
2022/12/30 11:30:40;;;;;;;19.30;12.48;;;17.20;99.90;;;;;;5086982;28;20447;-75
2022/12/30 11:33:20;;;;;;;10.27;6.65;;;17.10;99.90;;;;;;5089109;28;20048;-75
2022/12/30 11:35:49;;;;;;;10.68;6.63;;;16.90;99.90;;;;;;5087566;28;20075;-75
2022/12/30 11:38:34;;;;;;;12.73;6.50;;;16.90;99.90;;;;;;5070797;28;20040;-75
2022/12/30 11:41:19;;;;;;;11.20;6.25;;;16.90;99.90;;;;;;5087354;28;20044;-75
2022/12/30 11:43:59;;;;;;;7.38;4.57;;;17.10;99.90;;;;;;5087362;28;20040;-75
2022/12/30 11:46:45;;;;;;;8.98;4.55;;;17.40;99.90;;;;;;5087329;28;20044;-75
2022/12/30 11:49:45;;;;;;;6.50;4.30;;;17.70;99.90;;;;;;5087601;28;20040;-75
2022/12/30 11:52:20;;;;;;;6.22;3.97;;;17.70;99.90;;;;;;5053914;28;20052;-75
2022/12/30 11:54:54;;;;;;;5.95;3.45;;;17.70;99.90;;;;;;5087517;28;20048;-75
2022/12/30 11:57:42;;;;;;;8.90;4.82;;;17.80;99.90;;;;;;5087666;28;20098;-75
2022/12/30 12:00:12;;;;;;;7.30;3.67;;;17.80;99.90;;;;;;5088612;28;20093;-75
2022/12/30 12:03:12;;;;;;;7.68;4.22;;;17.70;99.90;;;;;;5092880;28;20100;-75
2022/12/30 12:05:43;;;;;;;6.80;4.85;;;17.70;99.90;;;;;;5091359;28;20066;-76
2022/12/30 12:08:19;;;;;;;8.10;3.88;;;17.80;99.90;;;;;;5057582;28;20457;-75
2022/12/30 12:10:54;;;;;;;5.88;3.28;;;17.90;99.90;;;;;;5058078;28;20047;-75
2022/12/30 12:13:44;;;;;;;4.55;3.05;;;18.00;99.90;;;;;;5092449;28;20068;-76
2022/12/30 12:16:17;;;;;;;7.13;4.15;;;17.80;99.90;;;;;;5090401;28;20043;-75
2022/12/30 12:18:54;;;;;;;5.78;4.10;;;17.70;99.90;;;;;;5092059;28;20055;-75
2022/12/30 12:21:26;;;;;;;7.53;3.80;;;17.70;99.90;;;;;;5074224;28;20601;-75
2022/12/30 12:24:13;;;;;;;8.57;4.35;;;17.50;99.90;;;;;;5092014;28;20048;-75
2022/12/30 12:27:09;;;;;;;6.68;4.30;;;17.20;99.90;;;;;;5090550;28;20419;-75
2022/12/30 12:29:37;;;;;;;5.95;3.58;;;17.00;99.90;;;;;;5090760;28;20460;-75
2022/12/30 12:32:26;;;;;;;11.07;7.25;;;16.90;99.90;;;;;;5091365;28;20046;-74
2022/12/30 12:35:25;;;;;;;6.32;3.75;;;16.80;99.90;;;;;;5090541;28;20545;-75
2022/12/30 12:38:36;;;;;;;5.80;3.72;;;16.80;99.90;;;;;;5073595;28;20491;-75
2022/12/30 12:41:29;;;;;;;7.80;4.53;;;17.00;99.90;;;;;;5062858;28;20063;-75
2022/12/30 12:44:23;;;;;;;8.80;4.45;;;16.90;99.90;;;;;;5089881;28;20044;-74
2022/12/30 12:46:57;;;;;;;8.13;5.40;;;16.80;99.90;;;;;;5089930;28;20195;-75
2022/12/30 12:49:40;;;;;;;15.80;6.80;;;16.90;99.90;;;;;;5091182;28;20563;-75
2022/12/30 12:52:11;;;;;;;8.48;4.47;;;17.10;99.90;;;;;;5090164;28;20083;-75
2022/12/30 12:55:06;;;;;;;8.20;5.57;;;17.00;99.90;;;;;;5089837;28;20037;-75
2022/12/30 12:57:45;;;;;;;7.30;5.05;;;17.10;99.90;;;;;;5090885;28;20059;-76
2022/12/30 13:00:16;;;;;;;7.80;4.50;;;17.20;99.90;;;;;;5089835;28;20545;-75
2022/12/30 13:03:36;;;;;;;5.03;3.40;;;17.20;99.90;;;;;;5091898;28;20347;-75
2022/12/30 13:06:40;;;;;;;7.22;3.95;;;17.30;99.90;;;;;;5046130;28;20047;-76
2022/12/30 13:09:36;;;;;;;5.85;3.95;;;17.40;99.90;;;;;;5053718;28;20131;-76
2022/12/30 13:12:10;;;;;;;4.75;3.25;;;17.30;99.90;;;;;;5051360;28;20056;-76
2022/12/30 13:14:51;;;;;;;8.52;4.10;;;17.30;99.90;;;;;;5071217;28;20048;-75
2022/12/30 13:17:30;;;;;;;5.25;2.90;;;17.30;99.90;;;;;;5082743;28;20072;-75
2022/12/30 13:20:05;;;;;;;7.72;3.13;;;17.30;99.90;;;;;;5075414;28;20098;-74
2022/12/30 13:22:35;;;;;;;9.90;3.78;;;17.40;99.90;;;;;;5069448;28;20494;-75
2022/12/30 13:25:20;;;;;;;6.07;3.42;;;17.40;99.90;;;;;;5042118;28;20083;-75
2022/12/30 13:27:53;;;;;;;10.88;3.70;;;17.30;99.90;;;;;;5083478;28;20049;-76
2022/12/30 13:30:24;;;;;;;8.00;4.55;;;17.30;99.90;;;;;;5082973;28;20398;-75
2022/12/30 13:33:28;;;;;;;7.53;3.95;;;17.30;99.90;;;;;;5074043;28;20121;-75
2022/12/30 13:36:05;;;;;;;4.82;3.45;;;17.20;99.90;;;;;;5028254;28;20588;-76
2022/12/30 13:39:05;;;;;;;11.23;4.78;;;17.20;99.90;;;;;;5085689;28;20052;-76
2022/12/30 13:41:42;;;;;;;10.05;5.03;;;17.20;99.90;;;;;;5026102;28;20053;-77
2022/12/30 13:44:16;;;;;;;9.50;5.65;;;17.00;99.90;;;;;;5052657;28;20831;-76
2022/12/30 13:46:49;;;;;;;6.20;4.82;;;16.90;99.90;;;;;;5043520;28;20044;-75
2022/12/30 13:49:31;;;;;;;9.13;5.40;;;16.80;99.90;;;;;;5072260;28;20052;-75
2022/12/30 13:52:02;;;;;;;11.05;5.75;;;16.70;99.90;;;;;;5082125;28;20051;-75
2022/12/30 13:54:32;;;;;;;12.10;6.57;;;16.60;99.90;;;;;;5086850;28;20040;-74
2022/12/30 13:57:02;;;;;;;9.35;5.15;;;16.40;99.90;;;;;;5089879;28;20040;-75
2022/12/30 13:59:36;;;;;;;6.15;4.22;;;16.40;99.90;;;;;;5089009;28;20485;-75
2022/12/30 14:02:19;;;;;;;6.18;4.38;;;16.40;99.90;;;;;;5068602;28;20052;-74
2022/12/30 14:04:51;;;;;;;6.53;4.47;;;16.40;99.90;;;;;;5035300;28;20110;-75
2022/12/30 14:07:37;;;;;;;7.63;4.22;;;16.40;99.90;;;;;;5071697;28;20048;-75
2022/12/30 14:10:17;;;;;;;6.15;3.90;;;16.50;99.90;;;;;;5071782;28;20059;-74